sensor_id;sensor_type;location;lat;lon;timestamp;P1;durP1;ratioP1;P2;durP2;ratioP2
68300;SDS011;55146;47.468;18.806;2023-04-24T00:01:18;13.50;;;6.67;;
68300;SDS011;55146;47.468;18.806;2023-04-24T00:03:44;10.32;;;7.47;;
68300;SDS011;55146;47.468;18.806;2023-04-24T00:06:09;14.70;;;7.07;;
68300;SDS011;55146;47.468;18.806;2023-04-24T00:08:35;12.60;;;7.97;;
68300;SDS011;55146;47.468;18.806;2023-04-24T00:11:01;10.75;;;6.70;;
68300;SDS011;55146;47.468;18.806;2023-04-24T00:13:26;13.83;;;7.40;;
68300;SDS011;55146;47.468;18.806;2023-04-24T00:15:53;12.55;;;7.78;;
68300;SDS011;55146;47.468;18.806;2023-04-24T00:18:19;11.95;;;7.82;;
68300;SDS011;55146;47.468;18.806;2023-04-24T00:20:44;13.73;;;8.00;;
68300;SDS011;55146;47.468;18.806;2023-04-24T00:23:09;10.70;;;7.00;;
68300;SDS011;55146;47.468;18.806;2023-04-24T00:25:35;10.97;;;6.97;;
68300;SDS011;55146;47.468;18.806;2023-04-24T00:28:00;14.33;;;8.80;;
68300;SDS011;55146;47.468;18.806;2023-04-24T00:30:26;12.70;;;7.60;;
68300;SDS011;55146;47.468;18.806;2023-04-24T00:32:51;10.43;;;6.87;;
68300;SDS011;55146;47.468;18.806;2023-04-24T00:35:16;11.20;;;8.13;;
68300;SDS011;55146;47.468;18.806;2023-04-24T00:37:42;13.03;;;7.67;;
68300;SDS011;55146;47.468;18.806;2023-04-24T00:40:07;12.23;;;7.03;;
68300;SDS011;55146;47.468;18.806;2023-04-24T00:42:33;10.88;;;7.30;;
68300;SDS011;55146;47.468;18.806;2023-04-24T00:44:59;11.90;;;7.82;;
68300;SDS011;55146;47.468;18.806;2023-04-24T00:47:26;15.32;;;8.07;;
68300;SDS011;55146;47.468;18.806;2023-04-24T00:49:52;11.93;;;8.00;;
68300;SDS011;55146;47.468;18.806;2023-04-24T00:52:17;13.68;;;7.95;;
68300;SDS011;55146;47.468;18.806;2023-04-24T00:54:43;13.50;;;7.97;;
68300;SDS011;55146;47.468;18.806;2023-04-24T00:57:10;13.45;;;8.32;;
68300;SDS011;55146;47.468;18.806;2023-04-24T00:59:35;12.80;;;8.87;;
68300;SDS011;55146;47.468;18.806;2023-04-24T01:02:01;12.65;;;8.15;;
68300;SDS011;55146;47.468;18.806;2023-04-24T01:04:27;16.43;;;8.43;;
68300;SDS011;55146;47.468;18.806;2023-04-24T01:06:53;13.07;;;8.55;;
68300;SDS011;55146;47.468;18.806;2023-04-24T01:09:21;12.80;;;8.15;;
68300;SDS011;55146;47.468;18.806;2023-04-24T01:11:48;12.05;;;7.78;;
68300;SDS011;55146;47.468;18.806;2023-04-24T01:14:14;13.73;;;7.63;;
68300;SDS011;55146;47.468;18.806;2023-04-24T01:16:40;15.77;;;8.52;;
68300;SDS011;55146;47.468;18.806;2023-04-24T01:19:06;12.77;;;8.32;;
68300;SDS011;55146;47.468;18.806;2023-04-24T01:21:32;11.87;;;8.57;;
68300;SDS011;55146;47.468;18.806;2023-04-24T01:24:01;13.65;;;8.50;;
68300;SDS011;55146;47.468;18.806;2023-04-24T01:26:27;12.53;;;8.67;;
68300;SDS011;55146;47.468;18.806;2023-04-24T01:28:53;12.85;;;8.65;;
68300;SDS011;55146;47.468;18.806;2023-04-24T01:31:18;13.53;;;8.43;;
68300;SDS011;55146;47.468;18.806;2023-04-24T01:33:44;11.40;;;7.67;;
68300;SDS011;55146;47.468;18.806;2023-04-24T01:36:10;14.13;;;8.32;;
68300;SDS011;55146;47.468;18.806;2023-04-24T01:38:36;12.17;;;7.93;;
68300;SDS011;55146;47.468;18.806;2023-04-24T01:41:02;10.85;;;7.90;;
68300;SDS011;55146;47.468;18.806;2023-04-24T01:43:27;11.30;;;8.57;;
68300;SDS011;55146;47.468;18.806;2023-04-24T01:45:53;10.82;;;7.18;;
68300;SDS011;55146;47.468;18.806;2023-04-24T01:48:18;10.20;;;6.77;;
68300;SDS011;55146;47.468;18.806;2023-04-24T01:50:44;12.33;;;7.10;;
68300;SDS011;55146;47.468;18.806;2023-04-24T01:53:09;10.18;;;6.50;;
68300;SDS011;55146;47.468;18.806;2023-04-24T01:55:35;8.27;;;5.60;;
68300;SDS011;55146;47.468;18.806;2023-04-24T01:58:00;10.40;;;6.43;;
68300;SDS011;55146;47.468;18.806;2023-04-24T02:00:27;8.93;;;6.22;;
68300;SDS011;55146;47.468;18.806;2023-04-24T02:02:52;11.07;;;6.50;;
68300;SDS011;55146;47.468;18.806;2023-04-24T02:05:17;10.53;;;7.17;;
68300;SDS011;55146;47.468;18.806;2023-04-24T02:07:43;8.63;;;6.90;;
68300;SDS011;55146;47.468;18.806;2023-04-24T02:10:08;8.50;;;5.87;;
68300;SDS011;55146;47.468;18.806;2023-04-24T02:12:34;9.53;;;6.23;;
68300;SDS011;55146;47.468;18.806;2023-04-24T02:15:00;10.15;;;6.30;;
68300;SDS011;55146;47.468;18.806;2023-04-24T02:17:25;11.40;;;6.43;;
68300;SDS011;55146;47.468;18.806;2023-04-24T02:19:50;11.17;;;6.27;;
68300;SDS011;55146;47.468;18.806;2023-04-24T02:22:16;9.83;;;6.57;;
68300;SDS011;55146;47.468;18.806;2023-04-24T02:24:41;11.33;;;7.27;;
68300;SDS011;55146;47.468;18.806;2023-04-24T02:27:07;11.90;;;6.30;;
68300;SDS011;55146;47.468;18.806;2023-04-24T02:29:32;11.60;;;6.60;;
68300;SDS011;55146;47.468;18.806;2023-04-24T02:31:57;9.80;;;6.53;;
68300;SDS011;55146;47.468;18.806;2023-04-24T02:34:23;10.87;;;8.33;;
68300;SDS011;55146;47.468;18.806;2023-04-24T02:36:48;11.37;;;7.33;;
68300;SDS011;55146;47.468;18.806;2023-04-24T02:39:14;10.20;;;7.43;;
68300;SDS011;55146;47.468;18.806;2023-04-24T02:41:41;12.40;;;8.45;;
68300;SDS011;55146;47.468;18.806;2023-04-24T02:44:09;10.05;;;7.18;;
68300;SDS011;55146;47.468;18.806;2023-04-24T02:46:35;11.23;;;7.47;;
68300;SDS011;55146;47.468;18.806;2023-04-24T02:49:00;12.33;;;8.23;;
68300;SDS011;55146;47.468;18.806;2023-04-24T02:51:26;11.93;;;8.33;;
68300;SDS011;55146;47.468;18.806;2023-04-24T02:53:51;11.43;;;8.37;;
68300;SDS011;55146;47.468;18.806;2023-04-24T02:56:17;12.47;;;7.67;;
68300;SDS011;55146;47.468;18.806;2023-04-24T02:58:42;11.93;;;8.50;;
68300;SDS011;55146;47.468;18.806;2023-04-24T03:01:08;10.37;;;7.87;;
68300;SDS011;55146;47.468;18.806;2023-04-24T03:03:35;11.12;;;7.45;;
68300;SDS011;55146;47.468;18.806;2023-04-24T03:06:01;10.75;;;8.18;;
68300;SDS011;55146;47.468;18.806;2023-04-24T03:08:26;11.50;;;9.17;;
68300;SDS011;55146;47.468;18.806;2023-04-24T03:10:52;12.53;;;7.63;;
68300;SDS011;55146;47.468;18.806;2023-04-24T03:13:17;13.23;;;8.07;;
68300;SDS011;55146;47.468;18.806;2023-04-24T03:15:43;11.40;;;8.23;;
68300;SDS011;55146;47.468;18.806;2023-04-24T03:18:08;13.70;;;8.33;;
68300;SDS011;55146;47.468;18.806;2023-04-24T03:20:33;12.27;;;9.07;;
68300;SDS011;55146;47.468;18.806;2023-04-24T03:22:58;9.23;;;8.20;;
68300;SDS011;55146;47.468;18.806;2023-04-24T03:25:24;9.60;;;7.00;;
68300;SDS011;55146;47.468;18.806;2023-04-24T03:27:50;12.02;;;7.43;;
68300;SDS011;55146;47.468;18.806;2023-04-24T03:30:15;12.70;;;7.27;;
68300;SDS011;55146;47.468;18.806;2023-04-24T03:32:40;11.23;;;7.00;;
68300;SDS011;55146;47.468;18.806;2023-04-24T03:35:06;11.83;;;7.80;;
68300;SDS011;55146;47.468;18.806;2023-04-24T03:37:33;13.85;;;7.57;;
68300;SDS011;55146;47.468;18.806;2023-04-24T03:39:58;11.50;;;7.33;;
68300;SDS011;55146;47.468;18.806;2023-04-24T03:42:23;12.93;;;8.43;;
68300;SDS011;55146;47.468;18.806;2023-04-24T03:44:49;11.82;;;7.62;;
68300;SDS011;55146;47.468;18.806;2023-04-24T03:47:14;11.63;;;8.00;;
68300;SDS011;55146;47.468;18.806;2023-04-24T03:49:40;10.70;;;8.43;;
68300;SDS011;55146;47.468;18.806;2023-04-24T03:52:05;12.70;;;8.33;;
68300;SDS011;55146;47.468;18.806;2023-04-24T03:54:30;11.00;;;8.83;;
68300;SDS011;55146;47.468;18.806;2023-04-24T03:56:56;11.53;;;8.73;;
68300;SDS011;55146;47.468;18.806;2023-04-24T03:59:21;13.18;;;8.27;;
68300;SDS011;55146;47.468;18.806;2023-04-24T04:01:46;11.67;;;8.37;;
68300;SDS011;55146;47.468;18.806;2023-04-24T04:04:12;12.10;;;8.53;;
68300;SDS011;55146;47.468;18.806;2023-04-24T04:06:37;10.93;;;7.67;;
68300;SDS011;55146;47.468;18.806;2023-04-24T04:09:03;15.47;;;8.93;;
68300;SDS011;55146;47.468;18.806;2023-04-24T04:11:28;16.67;;;8.63;;
68300;SDS011;55146;47.468;18.806;2023-04-24T04:13:54;11.47;;;8.60;;
68300;SDS011;55146;47.468;18.806;2023-04-24T04:16:20;12.88;;;9.48;;
68300;SDS011;55146;47.468;18.806;2023-04-24T04:18:45;12.80;;;9.83;;
68300;SDS011;55146;47.468;18.806;2023-04-24T04:21:11;12.17;;;9.00;;
68300;SDS011;55146;47.468;18.806;2023-04-24T04:23:36;12.83;;;8.93;;
68300;SDS011;55146;47.468;18.806;2023-04-24T04:26:02;15.37;;;9.70;;
68300;SDS011;55146;47.468;18.806;2023-04-24T04:28:28;13.02;;;9.38;;
68300;SDS011;55146;47.468;18.806;2023-04-24T04:30:55;16.08;;;9.43;;
68300;SDS011;55146;47.468;18.806;2023-04-24T04:33:22;13.20;;;8.40;;
68300;SDS011;55146;47.468;18.806;2023-04-24T04:35:48;15.13;;;9.80;;
68300;SDS011;55146;47.468;18.806;2023-04-24T04:38:14;13.38;;;9.05;;
68300;SDS011;55146;47.468;18.806;2023-04-24T04:40:41;13.23;;;8.52;;
68300;SDS011;55146;47.468;18.806;2023-04-24T04:43:07;14.37;;;8.70;;
68300;SDS011;55146;47.468;18.806;2023-04-24T04:45:32;15.65;;;8.68;;
68300;SDS011;55146;47.468;18.806;2023-04-24T04:47:59;13.90;;;9.40;;
68300;SDS011;55146;47.468;18.806;2023-04-24T04:50:28;15.63;;;9.75;;
68300;SDS011;55146;47.468;18.806;2023-04-24T04:52:54;11.57;;;8.65;;
68300;SDS011;55146;47.468;18.806;2023-04-24T04:55:19;13.20;;;9.33;;
68300;SDS011;55146;47.468;18.806;2023-04-24T04:57:45;16.17;;;10.77;;
68300;SDS011;55146;47.468;18.806;2023-04-24T05:00:11;14.23;;;8.68;;
68300;SDS011;55146;47.468;18.806;2023-04-24T05:02:40;14.15;;;9.18;;
68300;SDS011;55146;47.468;18.806;2023-04-24T05:05:06;17.08;;;8.57;;
68300;SDS011;55146;47.468;18.806;2023-04-24T05:07:32;11.35;;;8.38;;
68300;SDS011;55146;47.468;18.806;2023-04-24T05:09:57;13.27;;;8.80;;
68300;SDS011;55146;47.468;18.806;2023-04-24T05:12:23;12.33;;;8.63;;
68300;SDS011;55146;47.468;18.806;2023-04-24T05:14:48;14.30;;;9.83;;
68300;SDS011;55146;47.468;18.806;2023-04-24T05:17:13;15.07;;;9.80;;
68300;SDS011;55146;47.468;18.806;2023-04-24T05:19:40;16.10;;;9.75;;
68300;SDS011;55146;47.468;18.806;2023-04-24T05:22:05;14.77;;;10.87;;
68300;SDS011;55146;47.468;18.806;2023-04-24T05:24:32;14.25;;;8.50;;
68300;SDS011;55146;47.468;18.806;2023-04-24T05:26:58;14.38;;;10.50;;
68300;SDS011;55146;47.468;18.806;2023-04-24T05:29:24;17.08;;;9.73;;
68300;SDS011;55146;47.468;18.806;2023-04-24T05:31:51;12.32;;;9.88;;
68300;SDS011;55146;47.468;18.806;2023-04-24T05:34:16;12.83;;;9.30;;
68300;SDS011;55146;47.468;18.806;2023-04-24T05:36:41;16.50;;;10.27;;
68300;SDS011;55146;47.468;18.806;2023-04-24T05:39:07;17.33;;;9.70;;
68300;SDS011;55146;47.468;18.806;2023-04-24T05:41:33;17.93;;;9.90;;
68300;SDS011;55146;47.468;18.806;2023-04-24T05:43:59;14.93;;;9.27;;
68300;SDS011;55146;47.468;18.806;2023-04-24T05:46:24;13.90;;;8.67;;
68300;SDS011;55146;47.468;18.806;2023-04-24T05:48:50;14.43;;;9.27;;
68300;SDS011;55146;47.468;18.806;2023-04-24T05:51:15;13.07;;;9.93;;
68300;SDS011;55146;47.468;18.806;2023-04-24T05:53:40;14.60;;;8.97;;
68300;SDS011;55146;47.468;18.806;2023-04-24T05:56:06;15.15;;;9.20;;
68300;SDS011;55146;47.468;18.806;2023-04-24T05:58:31;16.90;;;8.57;;
68300;SDS011;55146;47.468;18.806;2023-04-24T06:00:56;15.63;;;9.87;;
68300;SDS011;55146;47.468;18.806;2023-04-24T06:03:23;15.93;;;9.73;;
68300;SDS011;55146;47.468;18.806;2023-04-24T06:05:50;14.23;;;10.13;;
68300;SDS011;55146;47.468;18.806;2023-04-24T06:08:16;15.27;;;9.48;;
68300;SDS011;55146;47.468;18.806;2023-04-24T06:10:41;13.68;;;10.05;;
68300;SDS011;55146;47.468;18.806;2023-04-24T06:13:07;16.27;;;9.43;;
68300;SDS011;55146;47.468;18.806;2023-04-24T06:15:32;15.57;;;10.87;;
68300;SDS011;55146;47.468;18.806;2023-04-24T06:17:58;20.60;;;14.73;;
68300;SDS011;55146;47.468;18.806;2023-04-24T06:20:24;25.17;;;19.10;;
68300;SDS011;55146;47.468;18.806;2023-04-24T06:22:50;28.27;;;18.35;;
68300;SDS011;55146;47.468;18.806;2023-04-24T06:25:15;21.77;;;15.37;;
68300;SDS011;55146;47.468;18.806;2023-04-24T06:27:41;23.43;;;16.30;;
68300;SDS011;55146;47.468;18.806;2023-04-24T06:30:06;19.62;;;13.65;;
68300;SDS011;55146;47.468;18.806;2023-04-24T06:32:32;21.00;;;12.90;;
68300;SDS011;55146;47.468;18.806;2023-04-24T06:34:57;20.53;;;12.07;;
68300;SDS011;55146;47.468;18.806;2023-04-24T06:37:23;17.05;;;10.95;;
68300;SDS011;55146;47.468;18.806;2023-04-24T06:39:48;13.87;;;9.80;;
68300;SDS011;55146;47.468;18.806;2023-04-24T06:42:14;14.77;;;10.63;;
68300;SDS011;55146;47.468;18.806;2023-04-24T06:44:40;16.60;;;10.70;;
68300;SDS011;55146;47.468;18.806;2023-04-24T06:47:08;14.77;;;10.52;;
68300;SDS011;55146;47.468;18.806;2023-04-24T06:49:38;17.37;;;10.32;;
68300;SDS011;55146;47.468;18.806;2023-04-24T06:52:04;16.77;;;9.90;;
68300;SDS011;55146;47.468;18.806;2023-04-24T06:54:30;11.88;;;9.15;;
68300;SDS011;55146;47.468;18.806;2023-04-24T06:56:56;12.45;;;9.75;;
68300;SDS011;55146;47.468;18.806;2023-04-24T06:59:22;18.40;;;8.53;;
68300;SDS011;55146;47.468;18.806;2023-04-24T07:01:48;16.62;;;10.25;;
68300;SDS011;55146;47.468;18.806;2023-04-24T07:04:14;17.23;;;11.03;;
68300;SDS011;55146;47.468;18.806;2023-04-24T07:06:39;15.75;;;10.50;;
68300;SDS011;55146;47.468;18.806;2023-04-24T07:09:05;17.37;;;11.10;;
68300;SDS011;55146;47.468;18.806;2023-04-24T07:11:30;14.63;;;9.33;;
68300;SDS011;55146;47.468;18.806;2023-04-24T07:13:56;14.07;;;10.52;;
68300;SDS011;55146;47.468;18.806;2023-04-24T07:16:21;23.87;;;10.90;;
68300;SDS011;55146;47.468;18.806;2023-04-24T07:18:47;15.03;;;9.80;;
68300;SDS011;55146;47.468;18.806;2023-04-24T07:21:12;15.40;;;10.13;;
68300;SDS011;55146;47.468;18.806;2023-04-24T07:23:38;19.60;;;10.83;;
68300;SDS011;55146;47.468;18.806;2023-04-24T07:26:03;14.13;;;9.50;;
68300;SDS011;55146;47.468;18.806;2023-04-24T07:28:29;16.90;;;9.85;;
68300;SDS011;55146;47.468;18.806;2023-04-24T07:30:56;16.67;;;8.70;;
68300;SDS011;55146;47.468;18.806;2023-04-24T07:33:22;15.98;;;8.70;;
68300;SDS011;55146;47.468;18.806;2023-04-24T07:35:48;13.20;;;8.90;;
68300;SDS011;55146;47.468;18.806;2023-04-24T07:38:13;10.60;;;8.27;;
68300;SDS011;55146;47.468;18.806;2023-04-24T07:40:39;11.27;;;8.40;;
68300;SDS011;55146;47.468;18.806;2023-04-24T07:43:04;10.37;;;7.77;;
68300;SDS011;55146;47.468;18.806;2023-04-24T07:45:30;12.70;;;7.67;;
68300;SDS011;55146;47.468;18.806;2023-04-24T07:47:56;11.77;;;7.00;;
68300;SDS011;55146;47.468;18.806;2023-04-24T07:50:21;9.83;;;7.13;;
68300;SDS011;55146;47.468;18.806;2023-04-24T07:52:47;9.63;;;6.55;;
68300;SDS011;55146;47.468;18.806;2023-04-24T07:55:12;10.13;;;8.03;;
68300;SDS011;55146;47.468;18.806;2023-04-24T07:57:38;10.10;;;7.60;;
68300;SDS011;55146;47.468;18.806;2023-04-24T08:00:03;12.07;;;7.43;;
68300;SDS011;55146;47.468;18.806;2023-04-24T08:02:30;11.18;;;7.72;;
68300;SDS011;55146;47.468;18.806;2023-04-24T08:04:56;12.70;;;8.20;;
68300;SDS011;55146;47.468;18.806;2023-04-24T08:07:21;13.93;;;9.17;;
68300;SDS011;55146;47.468;18.806;2023-04-24T08:09:46;13.90;;;8.93;;
68300;SDS011;55146;47.468;18.806;2023-04-24T08:12:12;14.20;;;8.70;;
68300;SDS011;55146;47.468;18.806;2023-04-24T08:14:37;15.23;;;9.70;;
68300;SDS011;55146;47.468;18.806;2023-04-24T08:17:03;20.73;;;9.65;;
68300;SDS011;55146;47.468;18.806;2023-04-24T08:19:28;14.40;;;9.73;;
68300;SDS011;55146;47.468;18.806;2023-04-24T08:21:54;14.03;;;9.30;;
68300;SDS011;55146;47.468;18.806;2023-04-24T08:24:19;16.67;;;10.10;;
68300;SDS011;55146;47.468;18.806;2023-04-24T08:26:45;14.23;;;8.93;;
68300;SDS011;55146;47.468;18.806;2023-04-24T08:29:10;13.13;;;8.60;;
68300;SDS011;55146;47.468;18.806;2023-04-24T08:31:35;14.17;;;9.00;;
68300;SDS011;55146;47.468;18.806;2023-04-24T08:34:01;14.45;;;9.43;;
68300;SDS011;55146;47.468;18.806;2023-04-24T08:36:26;14.63;;;9.73;;
68300;SDS011;55146;47.468;18.806;2023-04-24T08:38:52;11.70;;;9.43;;
68300;SDS011;55146;47.468;18.806;2023-04-24T08:41:18;12.13;;;8.35;;
68300;SDS011;55146;47.468;18.806;2023-04-24T08:43:45;10.73;;;7.57;;
68300;SDS011;55146;47.468;18.806;2023-04-24T08:46:12;12.02;;;8.38;;
68300;SDS011;55146;47.468;18.806;2023-04-24T08:48:38;13.27;;;7.95;;
68300;SDS011;55146;47.468;18.806;2023-04-24T08:51:05;12.93;;;8.02;;
68300;SDS011;55146;47.468;18.806;2023-04-24T08:53:32;11.55;;;7.93;;
68300;SDS011;55146;47.468;18.806;2023-04-24T08:55:58;10.97;;;7.47;;
68300;SDS011;55146;47.468;18.806;2023-04-24T08:58:26;14.07;;;7.75;;
68300;SDS011;55146;47.468;18.806;2023-04-24T09:00:56;14.27;;;7.20;;
68300;SDS011;55146;47.468;18.806;2023-04-24T09:03:22;11.82;;;8.00;;
68300;SDS011;55146;47.468;18.806;2023-04-24T09:05:48;11.10;;;7.73;;
68300;SDS011;55146;47.468;18.806;2023-04-24T09:08:16;10.07;;;7.62;;
68300;SDS011;55146;47.468;18.806;2023-04-24T09:10:43;12.45;;;7.68;;
68300;SDS011;55146;47.468;18.806;2023-04-24T09:13:08;11.50;;;8.40;;
68300;SDS011;55146;47.468;18.806;2023-04-24T09:15:35;12.18;;;9.13;;
68300;SDS011;55146;47.468;18.806;2023-04-24T09:18:01;12.73;;;8.40;;
68300;SDS011;55146;47.468;18.806;2023-04-24T09:20:27;14.97;;;8.80;;
68300;SDS011;55146;47.468;18.806;2023-04-24T09:22:53;15.40;;;8.77;;
68300;SDS011;55146;47.468;18.806;2023-04-24T09:25:20;12.10;;;9.10;;
68300;SDS011;55146;47.468;18.806;2023-04-24T09:27:46;15.73;;;9.23;;
68300;SDS011;55146;47.468;18.806;2023-04-24T09:30:12;12.75;;;8.40;;
68300;SDS011;55146;47.468;18.806;2023-04-24T09:32:37;14.82;;;9.45;;
68300;SDS011;55146;47.468;18.806;2023-04-24T09:35:07;14.10;;;9.23;;
68300;SDS011;55146;47.468;18.806;2023-04-24T09:37:42;12.13;;;8.60;;
68300;SDS011;55146;47.468;18.806;2023-04-24T09:40:13;15.17;;;9.30;;
68300;SDS011;55146;47.468;18.806;2023-04-24T09:42:44;15.18;;;9.25;;
68300;SDS011;55146;47.468;18.806;2023-04-24T09:45:11;12.77;;;10.00;;
68300;SDS011;55146;47.468;18.806;2023-04-24T09:47:37;14.70;;;9.50;;
68300;SDS011;55146;47.468;18.806;2023-04-24T09:50:09;16.70;;;10.27;;
68300;SDS011;55146;47.468;18.806;2023-04-24T09:52:39;15.48;;;10.18;;
68300;SDS011;55146;47.468;18.806;2023-04-24T09:55:10;14.98;;;9.88;;
68300;SDS011;55146;47.468;18.806;2023-04-24T09:57:40;20.17;;;9.85;;
68300;SDS011;55146;47.468;18.806;2023-04-24T10:00:12;13.27;;;8.40;;
68300;SDS011;55146;47.468;18.806;2023-04-24T10:02:38;13.23;;;8.90;;
68300;SDS011;55146;47.468;18.806;2023-04-24T10:05:04;15.23;;;10.30;;
68300;SDS011;55146;47.468;18.806;2023-04-24T10:07:32;14.47;;;9.70;;
68300;SDS011;55146;47.468;18.806;2023-04-24T10:09:58;13.95;;;9.77;;
68300;SDS011;55146;47.468;18.806;2023-04-24T10:12:24;22.65;;;10.38;;
68300;SDS011;55146;47.468;18.806;2023-04-24T10:14:51;15.35;;;9.98;;
68300;SDS011;55146;47.468;18.806;2023-04-24T10:17:17;14.50;;;10.67;;
68300;SDS011;55146;47.468;18.806;2023-04-24T10:19:43;14.57;;;10.53;;
68300;SDS011;55146;47.468;18.806;2023-04-24T10:22:09;13.52;;;10.55;;
68300;SDS011;55146;47.468;18.806;2023-04-24T10:24:35;17.08;;;10.27;;
68300;SDS011;55146;47.468;18.806;2023-04-24T10:27:03;14.82;;;11.05;;
68300;SDS011;55146;47.468;18.806;2023-04-24T10:29:29;15.85;;;10.77;;
68300;SDS011;55146;47.468;18.806;2023-04-24T10:31:56;15.73;;;9.43;;
68300;SDS011;55146;47.468;18.806;2023-04-24T10:34:22;18.60;;;11.00;;
68300;SDS011;55146;47.468;18.806;2023-04-24T10:36:50;17.03;;;10.70;;
68300;SDS011;55146;47.468;18.806;2023-04-24T10:39:17;17.00;;;11.52;;
68300;SDS011;55146;47.468;18.806;2023-04-24T10:41:44;17.90;;;10.50;;
68300;SDS011;55146;47.468;18.806;2023-04-24T10:44:14;17.75;;;10.50;;
68300;SDS011;55146;47.468;18.806;2023-04-24T10:46:47;16.62;;;9.57;;
68300;SDS011;55146;47.468;18.806;2023-04-24T10:49:19;13.43;;;8.97;;
68300;SDS011;55146;47.468;18.806;2023-04-24T10:51:53;13.98;;;9.38;;
68300;SDS011;55146;47.468;18.806;2023-04-24T10:54:25;15.15;;;9.82;;
68300;SDS011;55146;47.468;18.806;2023-04-24T10:56:53;15.00;;;8.50;;
68300;SDS011;55146;47.468;18.806;2023-04-24T10:59:39;19.23;;;7.90;;
68300;SDS011;55146;47.468;18.806;2023-04-24T11:02:05;11.07;;;7.47;;
68300;SDS011;55146;47.468;18.806;2023-04-24T11:04:33;11.43;;;7.82;;
68300;SDS011;55146;47.468;18.806;2023-04-24T11:07:00;12.43;;;7.35;;
68300;SDS011;55146;47.468;18.806;2023-04-24T11:09:26;12.40;;;6.70;;
68300;SDS011;55146;47.468;18.806;2023-04-24T11:12:02;10.63;;;6.18;;
68300;SDS011;55146;47.468;18.806;2023-04-24T11:17:36;8.75;;;5.22;;
68300;SDS011;55146;47.468;18.806;2023-04-24T11:20:10;10.55;;;4.87;;
68300;SDS011;55146;47.468;18.806;2023-04-24T11:22:37;8.80;;;4.20;;
68300;SDS011;55146;47.468;18.806;2023-04-24T11:25:04;7.18;;;4.45;;
68300;SDS011;55146;47.468;18.806;2023-04-24T11:27:34;7.30;;;5.03;;
68300;SDS011;55146;47.468;18.806;2023-04-24T11:30:04;7.60;;;4.35;;
68300;SDS011;55146;47.468;18.806;2023-04-24T11:32:35;7.57;;;4.53;;
68300;SDS011;55146;47.468;18.806;2023-04-24T11:37:44;9.80;;;4.93;;
68300;SDS011;55146;47.468;18.806;2023-04-24T11:40:12;7.28;;;4.65;;
68300;SDS011;55146;47.468;18.806;2023-04-24T11:42:41;8.23;;;4.32;;
68300;SDS011;55146;47.468;18.806;2023-04-24T11:47:40;6.37;;;4.03;;
68300;SDS011;55146;47.468;18.806;2023-04-24T11:50:06;6.87;;;3.97;;
68300;SDS011;55146;47.468;18.806;2023-04-24T11:52:36;7.75;;;4.00;;
68300;SDS011;55146;47.468;18.806;2023-04-24T11:55:03;6.97;;;5.03;;
68300;SDS011;55146;47.468;18.806;2023-04-24T11:57:28;7.30;;;4.53;;
68300;SDS011;55146;47.468;18.806;2023-04-24T11:59:59;6.55;;;4.53;;
68300;SDS011;55146;47.468;18.806;2023-04-24T12:02:26;6.60;;;4.10;;
68300;SDS011;55146;47.468;18.806;2023-04-24T12:04:52;7.72;;;4.20;;
68300;SDS011;55146;47.468;18.806;2023-04-24T12:07:18;5.75;;;3.72;;
68300;SDS011;55146;47.468;18.806;2023-04-24T12:09:45;6.33;;;3.70;;
68300;SDS011;55146;47.468;18.806;2023-04-24T12:12:14;6.45;;;3.87;;
68300;SDS011;55146;47.468;18.806;2023-04-24T12:14:41;7.43;;;4.25;;
68300;SDS011;55146;47.468;18.806;2023-04-24T12:17:10;6.37;;;3.70;;
68300;SDS011;55146;47.468;18.806;2023-04-24T12:19:35;8.02;;;4.10;;
68300;SDS011;55146;47.468;18.806;2023-04-24T12:22:04;6.67;;;4.70;;
68300;SDS011;55146;47.468;18.806;2023-04-24T12:24:31;7.50;;;4.32;;
68300;SDS011;55146;47.468;18.806;2023-04-24T12:26:57;6.53;;;4.62;;
68300;SDS011;55146;47.468;18.806;2023-04-24T12:29:23;6.50;;;3.87;;
68300;SDS011;55146;47.468;18.806;2023-04-24T12:31:50;8.80;;;4.60;;
68300;SDS011;55146;47.468;18.806;2023-04-24T12:34:20;8.73;;;4.68;;
68300;SDS011;55146;47.468;18.806;2023-04-24T12:36:46;7.18;;;4.62;;
68300;SDS011;55146;47.468;18.806;2023-04-24T12:39:16;8.27;;;3.95;;
68300;SDS011;55146;47.468;18.806;2023-04-24T12:41:57;8.00;;;4.12;;
68300;SDS011;55146;47.468;18.806;2023-04-24T12:44:31;7.97;;;4.70;;
68300;SDS011;55146;47.468;18.806;2023-04-24T12:47:02;7.10;;;4.90;;
68300;SDS011;55146;47.468;18.806;2023-04-24T12:49:29;6.65;;;4.05;;
68300;SDS011;55146;47.468;18.806;2023-04-24T12:51:55;7.30;;;3.97;;
68300;SDS011;55146;47.468;18.806;2023-04-24T12:54:21;6.87;;;4.80;;
68300;SDS011;55146;47.468;18.806;2023-04-24T12:56:47;5.93;;;4.30;;
68300;SDS011;55146;47.468;18.806;2023-04-24T12:59:12;8.20;;;4.27;;
68300;SDS011;55146;47.468;18.806;2023-04-24T13:01:38;6.20;;;4.43;;
68300;SDS011;55146;47.468;18.806;2023-04-24T13:04:03;6.63;;;4.90;;
68300;SDS011;55146;47.468;18.806;2023-04-24T13:06:30;8.07;;;4.47;;
68300;SDS011;55146;47.468;18.806;2023-04-24T13:08:56;6.32;;;4.40;;
68300;SDS011;55146;47.468;18.806;2023-04-24T13:11:23;8.13;;;4.40;;
68300;SDS011;55146;47.468;18.806;2023-04-24T13:13:48;9.35;;;4.70;;
68300;SDS011;55146;47.468;18.806;2023-04-24T13:16:14;11.87;;;4.70;;
68300;SDS011;55146;47.468;18.806;2023-04-24T13:18:39;7.00;;;4.37;;
68300;SDS011;55146;47.468;18.806;2023-04-24T13:21:04;6.40;;;5.03;;
68300;SDS011;55146;47.468;18.806;2023-04-24T13:23:30;9.03;;;5.73;;
68300;SDS011;55146;47.468;18.806;2023-04-24T13:25:55;9.20;;;6.40;;
68300;SDS011;55146;47.468;18.806;2023-04-24T13:28:23;10.80;;;6.72;;
68300;SDS011;55146;47.468;18.806;2023-04-24T13:30:49;12.15;;;6.82;;
68300;SDS011;55146;47.468;18.806;2023-04-24T13:33:15;10.80;;;6.97;;
68300;SDS011;55146;47.468;18.806;2023-04-24T13:35:40;10.47;;;6.60;;
68300;SDS011;55146;47.468;18.806;2023-04-24T13:38:06;14.60;;;6.90;;
68300;SDS011;55146;47.468;18.806;2023-04-24T13:40:32;9.40;;;6.47;;
68300;SDS011;55146;47.468;18.806;2023-04-24T13:42:57;9.68;;;6.22;;
68300;SDS011;55146;47.468;18.806;2023-04-24T13:45:23;10.23;;;6.80;;
68300;SDS011;55146;47.468;18.806;2023-04-24T13:47:49;10.23;;;6.97;;
68300;SDS011;55146;47.468;18.806;2023-04-24T13:50:14;11.77;;;7.12;;
68300;SDS011;55146;47.468;18.806;2023-04-24T13:52:40;12.33;;;8.30;;
68300;SDS011;55146;47.468;18.806;2023-04-24T13:55:05;13.00;;;9.07;;
68300;SDS011;55146;47.468;18.806;2023-04-24T13:57:31;10.80;;;8.60;;
68300;SDS011;55146;47.468;18.806;2023-04-24T13:59:57;11.87;;;8.70;;
68300;SDS011;55146;47.468;18.806;2023-04-24T14:02:26;13.80;;;8.23;;
68300;SDS011;55146;47.468;18.806;2023-04-24T14:04:53;15.48;;;9.20;;
68300;SDS011;55146;47.468;18.806;2023-04-24T14:07:18;13.43;;;8.63;;
68300;SDS011;55146;47.468;18.806;2023-04-24T14:09:43;12.97;;;9.27;;
68300;SDS011;55146;47.468;18.806;2023-04-24T14:12:09;13.63;;;9.23;;
68300;SDS011;55146;47.468;18.806;2023-04-24T14:14:34;12.17;;;8.80;;
68300;SDS011;55146;47.468;18.806;2023-04-24T14:17:00;13.30;;;8.10;;
68300;SDS011;55146;47.468;18.806;2023-04-24T14:19:25;9.97;;;7.80;;
68300;SDS011;55146;47.468;18.806;2023-04-24T14:21:50;12.40;;;8.10;;
68300;SDS011;55146;47.468;18.806;2023-04-24T14:24:16;14.10;;;8.15;;